Terminal Aerodrome Forecast
Issued by NWS

Home | Current Version | Previous Version | Text Only | Print | Product List | Glossary On
Versions: 1 2 3 4 5 6 7 8 9 10 11 12 13 14 15 16 17
000
FTUS43 KDTX 271120
TAFMBS
TAF
KMBS 271120Z 2712/2812 24005KT P6SM SCT050 SCT150
     FM271600 26009KT P6SM SCT060 SCT080 BKN200
      TEMPO 2720/2723 3SM TSRA SCT030 OVC045CB
     FM272300 04006KT P6SM SCT060 BKN100=

USA.gov is the U.S. government's official web portal to all federal, state and local government web resources and services.